Time;durP1;ratioP1;P1;durP2;ratioP2;P2;SDS_P1;SDS_P2;PMS_P1;PMS_P2;Temp;Humidity;BMP_temperature;BMP_pressure;BME280_temperature;BME280_humidity;BME280_pressure;Samples;Min_cycle;Max_cycle;Signal;HPM_P1;HPM_P2
2022/07/20 00:00:19;;;;;;;13.43;2.53;;;;;;;21.69;33.27;101448.72;4976680;28;20297;-76
2022/07/20 00:02:44;;;;;;;4.15;2.65;;;;;;;21.67;33.55;101456.00;4976984;28;20047;-78
2022/07/20 00:05:09;;;;;;;3.33;1.67;;;;;;;21.58;33.73;101456.72;4963575;28;20060;-78
2022/07/20 00:07:35;;;;;;;3.88;2.50;;;;;;;21.47;33.75;101457.53;4986500;28;20042;-79
2022/07/20 00:12:45;;;;;;;4.45;2.53;;;;;;;21.21;34.32;101449.75;4991781;28;20054;-78
2022/07/20 00:15:11;;;;;;;3.05;2.03;;;;;;;21.11;34.75;101449.59;4974572;28;20060;-77
2022/07/20 00:17:36;;;;;;;5.50;2.53;;;;;;;21.16;34.38;101449.25;4990657;28;20486;-77
2022/07/20 00:20:03;;;;;;;2.55;1.90;;;;;;;21.08;34.41;101448.97;4976760;28;20039;-78
2022/07/20 00:22:28;;;;;;;4.07;2.22;;;;;;;21.06;34.28;101448.25;4990172;28;20076;-77
2022/07/20 00:24:54;;;;;;;3.97;1.98;;;;;;;20.99;33.95;101455.00;4980523;28;20034;-75
2022/07/20 00:27:19;;;;;;;3.58;2.80;;;;;;;20.91;34.04;101443.13;4972950;28;20108;-77
2022/07/20 00:29:45;;;;;;;3.70;1.85;;;;;;;20.89;34.28;101445.06;5000795;28;20076;-77
2022/07/20 00:32:10;;;;;;;3.45;2.30;;;;;;;20.83;34.39;101445.47;4974649;28;20096;-78
2022/07/20 00:34:36;;;;;;;3.35;2.50;;;;;;;20.76;34.67;101446.91;4977136;28;20034;-78
2022/07/20 00:37:01;;;;;;;3.22;1.67;;;;;;;20.72;34.37;101442.78;4975659;28;20049;-76
2022/07/20 00:39:27;;;;;;;3.17;2.40;;;;;;;20.64;34.79;101439.84;4976090;28;20486;-76
2022/07/20 00:41:52;;;;;;;3.58;2.40;;;;;;;20.62;34.66;101441.75;4975954;28;20132;-77
2022/07/20 00:44:18;;;;;;;9.23;2.60;;;;;;;20.57;34.71;101433.28;4978381;28;20690;-77
2022/07/20 00:46:45;;;;;;;4.50;2.33;;;;;;;20.53;34.76;101433.53;4974043;28;20041;-78
2022/07/20 00:49:12;;;;;;;5.97;2.80;;;;;;;20.48;34.54;101421.53;4979571;28;20040;-76
2022/07/20 00:51:42;;;;;;;3.05;2.35;;;;;;;20.42;34.52;101420.19;4972483;28;20042;-77
2022/07/20 00:54:08;;;;;;;2.88;2.10;;;;;;;20.42;34.21;101417.53;4979197;28;20029;-77
2022/07/20 00:56:35;;;;;;;2.45;1.85;;;;;;;20.52;34.00;101415.03;5009416;28;20557;-77
2022/07/20 00:59:04;;;;;;;3.55;1.95;;;;;;;20.46;33.77;101419.00;4972485;28;20054;-78
2022/07/20 01:01:30;;;;;;;4.63;1.92;;;;;;;20.54;32.90;101411.31;4972568;28;20030;-77
2022/07/20 01:03:56;;;;;;;4.47;2.03;;;;;;;20.70;32.53;101415.47;4997740;28;20495;-77
2022/07/20 01:06:21;;;;;;;2.80;2.00;;;;;;;20.65;32.60;101410.50;4996330;28;20156;-78
2022/07/20 01:08:49;;;;;;;5.60;2.53;;;;;;;20.64;32.16;101418.59;4995233;28;20088;-75
2022/07/20 01:11:14;;;;;;;3.03;2.08;;;;;;;20.63;32.01;101419.56;4983160;28;20033;-77
2022/07/20 01:13:40;;;;;;;2.80;1.90;;;;;;;20.69;31.79;101417.31;4976551;28;20504;-77
2022/07/20 01:16:06;;;;;;;4.03;1.95;;;;;;;20.90;31.81;101419.34;4980728;28;20036;-77
2022/07/20 01:18:31;;;;;;;3.22;2.10;;;;;;;20.93;31.73;101412.00;4981792;28;20061;-77
2022/07/20 01:21:05;;;;;;;2.65;1.50;;;;;;;20.90;31.58;101414.84;4986961;28;20034;-77
2022/07/20 01:23:30;;;;;;;17.67;2.15;;;;;;;20.85;31.52;101414.38;5001935;28;20463;-77
2022/07/20 01:25:57;;;;;;;5.57;2.70;;;;;;;20.82;31.73;101411.03;4995703;28;20041;-75
2022/07/20 01:28:23;;;;;;;6.35;2.15;;;;;;;20.81;31.59;101410.22;4991645;28;20077;-74
2022/07/20 01:30:49;;;;;;;4.03;2.92;;;;;;;20.74;31.95;101414.28;4985400;28;20115;-75
2022/07/20 01:33:14;;;;;;;4.70;2.40;;;;;;;20.80;31.73;101407.66;4985221;28;20314;-77
2022/07/20 01:35:40;;;;;;;3.25;1.98;;;;;;;20.64;32.01;101407.97;4978675;28;20725;-77
2022/07/20 01:38:05;;;;;;;6.32;1.73;;;;;;;20.68;32.09;101404.13;4982666;28;20607;-77
2022/07/20 01:40:31;;;;;;;2.65;2.03;;;;;;;20.77;31.75;101403.44;4985082;28;20033;-76
2022/07/20 01:42:56;;;;;;;4.38;1.80;;;;;;;20.70;32.31;101410.16;4982367;28;20098;-76
2022/07/20 01:45:22;;;;;;;5.78;2.10;;;;;;;20.63;32.16;101398.31;4982675;28;20026;-76
2022/07/20 01:47:47;;;;;;;6.35;2.20;;;;;;;20.48;32.28;101398.47;4980352;28;20037;-77
2022/07/20 01:50:13;;;;;;;3.05;1.98;;;;;;;20.41;32.41;101391.09;4983873;28;20612;-74
2022/07/20 01:52:38;;;;;;;4.40;3.13;;;;;;;20.31;32.82;101393.59;4988777;28;20070;-76
2022/07/20 01:55:04;;;;;;;4.32;1.60;;;;;;;20.28;32.89;101394.66;4993696;28;20038;-76
2022/07/20 01:57:31;;;;;;;7.75;2.20;;;;;;;20.16;33.09;101399.97;4992048;28;20038;-76
2022/07/20 01:59:56;;;;;;;3.35;1.95;;;;;;;20.13;33.24;101391.28;4978353;28;20033;-78
2022/07/20 02:02:22;;;;;;;6.57;2.33;;;;;;;20.05;33.61;101396.28;4994683;28;20413;-77
2022/07/20 02:04:47;;;;;;;5.45;1.73;;;;;;;19.99;33.39;101396.72;4976454;28;20100;-78
2022/07/20 02:07:13;;;;;;;5.00;2.17;;;;;;;19.89;33.61;101390.41;4996612;28;20788;-76
2022/07/20 02:09:38;;;;;;;2.88;2.00;;;;;;;19.82;34.05;101395.28;4986023;28;20036;-75
2022/07/20 02:12:04;;;;;;;2.58;2.33;;;;;;;19.74;34.15;101392.34;4999355;28;20068;-74
2022/07/20 02:14:29;;;;;;;2.67;2.03;;;;;;;19.76;33.39;101384.28;4982560;28;20440;-76
2022/07/20 02:16:55;;;;;;;2.78;1.67;;;;;;;19.78;33.98;101385.03;4979132;28;20096;-78
2022/07/20 02:19:20;;;;;;;4.03;2.03;;;;;;;19.68;32.95;101385.69;4995113;28;20084;-77
2022/07/20 02:21:46;;;;;;;3.17;2.45;;;;;;;19.77;32.92;101380.66;4976703;28;20117;-77
2022/07/20 02:24:12;;;;;;;4.40;2.20;;;;;;;19.81;32.58;101382.13;4994653;28;20032;-77
2022/07/20 02:26:37;;;;;;;3.15;1.77;;;;;;;19.80;32.48;101381.28;4992107;28;20523;-76
2022/07/20 02:29:03;;;;;;;4.57;2.55;;;;;;;19.86;32.41;101380.00;4998102;28;20048;-77
2022/07/20 02:31:28;;;;;;;2.28;1.90;;;;;;;19.93;31.90;101378.63;4979209;28;20455;-76
2022/07/20 02:33:54;;;;;;;3.47;2.30;;;;;;;19.77;32.71;101376.22;4980336;28;20106;-76
2022/07/20 02:36:19;;;;;;;3.65;1.90;;;;;;;19.87;31.77;101373.75;4995829;28;20546;-76
2022/07/20 02:38:45;;;;;;;3.33;1.98;;;;;;;19.85;31.65;101384.47;4981074;28;20050;-75
2022/07/20 02:41:11;;;;;;;2.38;1.67;;;;;;;19.89;32.00;101385.09;4981256;28;20049;-75
2022/07/20 02:43:36;;;;;;;3.40;2.13;;;;;;;19.88;31.56;101380.72;4977822;28;20829;-76
2022/07/20 02:46:03;;;;;;;6.22;1.67;;;;;;;19.82;31.88;101384.69;4997181;28;20099;-78
2022/07/20 02:48:29;;;;;;;12.73;2.13;;;;;;;19.78;31.49;101379.72;4989206;28;20065;-76
2022/07/20 02:50:54;;;;;;;2.58;2.03;;;;;;;19.82;31.96;101387.34;4978146;28;20188;-75
2022/07/20 02:53:20;;;;;;;2.85;1.95;;;;;;;19.79;31.67;101382.25;4995786;28;20043;-77
2022/07/20 02:55:45;;;;;;;3.40;1.70;;;;;;;19.75;31.92;101377.25;4994828;28;20180;-76
2022/07/20 02:58:12;;;;;;;5.63;2.33;;;;;;;19.77;31.32;101375.34;4991862;28;20039;-76
2022/07/20 03:00:39;;;;;;;3.35;2.00;;;;;;;19.78;30.89;101371.75;4990355;28;20054;-74
2022/07/20 03:03:05;;;;;;;3.25;1.85;;;;;;;19.89;30.95;101374.47;4980113;28;20042;-75
2022/07/20 03:05:31;;;;;;;5.32;2.58;;;;;;;19.91;30.49;101369.91;4979192;28;20041;-75
2022/07/20 03:07:57;;;;;;;5.60;1.95;;;;;;;19.87;30.61;101365.78;4982612;28;20683;-77
2022/07/20 03:10:23;;;;;;;5.25;2.45;;;;;;;20.00;30.47;101376.38;4991900;28;20034;-75
2022/07/20 03:12:48;;;;;;;4.38;1.58;;;;;;;19.83;30.76;101375.75;4975935;28;20054;-75
2022/07/20 03:15:14;;;;;;;10.43;3.15;;;;;;;19.87;30.63;101373.75;4990931;28;20026;-77
2022/07/20 03:17:52;;;;;;;2.15;1.60;;;;;;;19.84;30.64;101371.31;4988461;28;20049;-75
2022/07/20 03:20:29;;;;;;;5.32;2.55;;;;;;;19.82;30.79;101375.88;4998047;28;20089;-78
2022/07/20 03:22:56;;;;;;;9.18;1.92;;;;;;;19.75;30.78;101370.19;4980124;28;20107;-77
2022/07/20 03:25:21;;;;;;;8.15;2.42;;;;;;;19.72;30.42;101362.41;4979516;28;20065;-75
2022/07/20 03:27:47;;;;;;;9.52;2.72;;;;;;;19.66;30.61;101366.38;4977338;28;20065;-77
2022/07/20 03:30:13;;;;;;;4.93;1.60;;;;;;;19.61;30.68;101359.69;4978923;28;20048;-77
2022/07/20 03:32:39;;;;;;;5.32;2.05;;;;;;;19.58;30.87;101368.72;4982603;28;20038;-76
2022/07/20 03:35:05;;;;;;;4.20;2.38;;;;;;;19.55;31.06;101358.34;4981006;28;20030;-77
2022/07/20 03:37:31;;;;;;;4.00;1.83;;;;;;;19.55;31.12;101357.44;4992456;28;20041;-77
2022/07/20 03:39:57;;;;;;;7.03;2.08;;;;;;;19.48;31.29;101355.22;4975717;28;20374;-77
2022/07/20 03:42:22;;;;;;;5.85;2.47;;;;;;;19.48;31.36;101367.66;4974481;28;20467;-77
2022/07/20 03:44:48;;;;;;;2.95;1.48;;;;;;;19.48;31.15;101365.00;4993194;28;20042;-76
2022/07/20 03:47:13;;;;;;;7.53;2.08;;;;;;;19.47;30.97;101363.28;4989444;28;20045;-75
2022/07/20 03:49:39;;;;;;;7.22;2.30;;;;;;;19.49;31.11;101364.03;4976660;28;20027;-77
2022/07/20 03:52:05;;;;;;;4.60;1.77;;;;;;;19.49;31.15;101366.69;4981992;28;20046;-75
2022/07/20 03:54:31;;;;;;;5.13;1.85;;;;;;;19.42;31.92;101370.72;4980622;28;20033;-76
2022/07/20 03:56:56;;;;;;;3.88;1.45;;;;;;;19.33;31.83;101368.72;5000354;28;20073;-75
2022/07/20 03:59:22;;;;;;;9.23;2.13;;;;;;;19.29;31.63;101366.25;4982036;28;20034;-75
2022/07/20 04:01:47;;;;;;;2.63;1.70;;;;;;;19.26;31.32;101365.66;4978018;28;20038;-77
2022/07/20 04:04:13;;;;;;;3.40;2.45;;;;;;;19.27;31.11;101362.88;4998545;28;21053;-75
2022/07/20 04:06:38;;;;;;;2.15;1.70;;;;;;;19.45;31.08;101362.53;4995585;28;20106;-76
2022/07/20 04:09:04;;;;;;;3.83;1.63;;;;;;;19.54;30.97;101366.34;4984041;28;20022;-76
2022/07/20 04:11:30;;;;;;;3.85;2.35;;;;;;;19.51;30.57;101367.41;4983279;28;20034;-76
2022/07/20 04:13:55;;;;;;;2.72;1.63;;;;;;;19.58;30.45;101363.41;4985617;28;20041;-76
2022/07/20 04:16:21;;;;;;;3.10;1.48;;;;;;;19.59;30.65;101366.91;4979393;28;20373;-76
2022/07/20 04:18:47;;;;;;;2.75;1.67;;;;;;;19.65;30.65;101367.31;4994034;28;20058;-75
2022/07/20 04:21:12;;;;;;;2.88;1.33;;;;;;;19.72;30.58;101370.38;4991795;28;20917;-76
2022/07/20 04:23:38;;;;;;;5.47;1.80;;;;;;;19.73;30.56;101371.25;4976201;28;20700;-77
2022/07/20 04:26:04;;;;;;;3.95;2.90;;;;;;;19.68;30.50;101360.94;4983154;28;20041;-77
2022/07/20 04:28:30;;;;;;;3.08;2.17;;;;;;;19.73;30.23;101368.59;4978902;28;20039;-77
2022/07/20 04:30:55;;;;;;;2.05;1.30;;;;;;;19.85;30.34;101367.69;4978410;28;20030;-77
2022/07/20 04:33:21;;;;;;;3.33;1.52;;;;;;;19.95;29.99;101363.44;4975576;28;20046;-77
2022/07/20 04:35:46;;;;;;;7.35;1.95;;;;;;;20.08;29.92;101358.94;4974954;28;20046;-76
2022/07/20 04:38:17;;;;;;;7.53;2.38;;;;;;;20.03;30.37;101360.22;4979748;28;20709;-78
2022/07/20 04:40:43;;;;;;;4.27;1.80;;;;;;;20.09;29.99;101357.97;4976455;28;20047;-76
2022/07/20 04:43:09;;;;;;;5.28;1.88;;;;;;;20.18;29.77;101359.09;4972639;28;20042;-75
2022/07/20 04:45:34;;;;;;;4.00;1.98;;;;;;;20.20;29.67;101359.84;4980326;28;20345;-78
2022/07/20 04:48:00;;;;;;;3.08;1.58;;;;;;;20.16;29.71;101357.53;4964004;28;20034;-77
2022/07/20 04:50:26;;;;;;;2.28;1.88;;;;;;;20.41;29.77;101360.06;4965361;28;20061;-77
2022/07/20 04:52:51;;;;;;;2.90;1.58;;;;;;;20.40;29.52;101347.78;4985735;28;20377;-77
2022/07/20 04:55:17;;;;;;;7.25;1.48;;;;;;;20.52;29.78;101354.81;4975836;28;20039;-75
2022/07/20 04:57:42;;;;;;;2.53;1.48;;;;;;;20.63;29.52;101353.16;4956435;28;20521;-76
2022/07/20 05:00:09;;;;;;;4.78;1.58;;;;;;;20.71;29.57;101356.94;4974773;28;20039;-76
2022/07/20 05:02:34;;;;;;;6.35;2.45;;;;;;;21.13;28.78;101352.00;4973674;28;20065;-76
2022/07/20 05:05:00;;;;;;;1.80;1.52;;;;;;;22.63;26.93;101358.63;4972577;28;20035;-77
2022/07/20 05:07:26;;;;;;;2.10;1.35;;;;;;;24.09;24.78;101356.69;4970986;28;20057;-77
2022/07/20 05:09:51;;;;;;;2.45;1.52;;;;;;;25.35;23.47;101353.91;4958049;28;20035;-76
2022/07/20 05:12:17;;;;;;;3.58;1.42;;;;;;;26.27;22.03;101350.28;4977586;28;20057;-76
2022/07/20 05:14:42;;;;;;;9.05;1.50;;;;;;;26.74;21.24;101340.25;4978878;28;20050;-77
2022/07/20 05:17:08;;;;;;;2.60;1.55;;;;;;;26.82;20.95;101343.84;4961027;28;20047;-77
2022/07/20 05:19:33;;;;;;;4.50;1.50;;;;;;;26.43;21.52;101348.75;4974994;28;20042;-77
2022/07/20 05:21:59;;;;;;;2.05;1.10;;;;;;;26.92;21.18;101343.75;4971592;28;20045;-75
2022/07/20 05:24:25;;;;;;;3.00;1.40;;;;;;;26.75;21.41;101340.13;4979408;28;20027;-77
2022/07/20 05:26:50;;;;;;;4.13;1.42;;;;;;;27.60;20.63;101347.44;4977751;28;20049;-74
2022/07/20 05:29:16;;;;;;;6.63;1.55;;;;;;;26.96;20.99;101336.22;4957702;28;20121;-74
2022/07/20 05:31:42;;;;;;;4.40;1.20;;;;;;;27.21;20.90;101339.94;4971964;28;20172;-77
2022/07/20 05:34:07;;;;;;;2.78;1.15;;;;;;;27.35;20.52;101339.31;4962278;28;20026;-76
2022/07/20 05:36:33;;;;;;;9.35;1.48;;;;;;;28.13;19.81;101344.44;4972229;28;23326;-75
2022/07/20 05:38:58;;;;;;;4.13;1.77;;;;;;;28.58;19.51;101349.47;4975511;28;20670;-76
2022/07/20 05:41:24;;;;;;;5.25;1.70;;;;;;;28.99;19.27;101350.25;4989661;28;20444;-77
2022/07/20 05:43:50;;;;;;;2.55;1.73;;;;;;;29.75;18.75;101350.69;4975861;28;20042;-77
2022/07/20 05:46:15;;;;;;;2.65;1.63;;;;;;;30.36;18.18;101353.50;4973915;28;20026;-74
2022/07/20 05:48:41;;;;;;;4.15;2.00;;;;;;;30.42;18.11;101351.91;4975288;28;20038;-76
2022/07/20 05:51:07;;;;;;;4.13;1.50;;;;;;;30.58;17.56;101349.13;4963846;28;20804;-75
2022/07/20 05:53:32;;;;;;;3.42;1.45;;;;;;;31.07;17.59;101355.88;4958881;28;20525;-78
2022/07/20 05:55:58;;;;;;;3.45;1.30;;;;;;;31.82;17.19;101360.97;4961609;28;20053;-77
2022/07/20 05:58:24;;;;;;;4.93;1.55;;;;;;;32.58;16.10;101367.78;4978598;28;20039;-75
2022/07/20 06:00:51;;;;;;;3.10;1.27;;;;;;;32.49;16.60;101358.97;4944640;28;20058;-77
2022/07/20 06:03:17;;;;;;;4.32;1.55;;;;;;;32.39;16.54;101362.00;4972581;28;20113;-77
2022/07/20 06:05:42;;;;;;;5.47;1.92;;;;;;;32.32;16.28;101360.22;4971621;28;20113;-76
2022/07/20 06:08:08;;;;;;;5.20;1.40;;;;;;;32.88;16.02;101359.47;4958841;28;20097;-78
2022/07/20 06:10:36;;;;;;;3.47;1.38;;;;;;;32.98;16.14;101365.38;4976175;28;20030;-78
2022/07/20 06:13:02;;;;;;;2.33;1.33;;;;;;;32.85;15.96;101364.22;4971594;28;20106;-78
2022/07/20 06:15:28;;;;;;;4.63;1.38;;;;;;;33.43;15.53;101369.34;4973310;28;20044;-78
2022/07/20 06:17:54;;;;;;;3.08;1.48;;;;;;;33.79;15.57;101362.00;4962939;28;20047;-78
2022/07/20 06:20:21;;;;;;;5.72;2.17;;;;;;;33.59;15.64;101368.19;4971915;28;20482;-78
2022/07/20 06:22:47;;;;;;;4.22;1.25;;;;;;;34.32;15.51;101359.38;4968121;28;20057;-78
2022/07/20 06:25:15;;;;;;;3.28;1.25;;;;;;;34.87;15.10;101365.41;4972830;28;20034;-77
2022/07/20 06:27:42;;;;;;;9.25;2.10;;;;;;;35.47;14.41;101365.25;4971655;28;20050;-77
2022/07/20 06:30:10;;;;;;;2.75;1.48;;;;;;;35.76;14.33;101368.44;4971369;28;20030;-78
2022/07/20 06:32:36;;;;;;;6.38;2.05;;;;;;;35.95;14.40;101371.28;4978761;28;20043;-77
2022/07/20 06:35:03;;;;;;;3.00;1.52;;;;;;;35.56;14.35;101367.69;4970220;28;20078;-78
2022/07/20 06:37:28;;;;;;;3.22;1.60;;;;;;;36.45;14.02;101368.56;4972530;28;20057;-75
2022/07/20 06:39:54;;;;;;;3.85;1.63;;;;;;;37.02;13.26;101371.19;4958533;28;20035;-79
2022/07/20 06:42:22;;;;;;;3.45;1.60;;;;;;;36.68;13.58;101368.00;4979379;28;20116;-79
2022/07/20 06:44:48;;;;;;;4.70;1.20;;;;;;;36.72;13.66;101367.31;4971387;28;20281;-78
2022/07/20 06:47:16;;;;;;;1.40;1.00;;;;;;;37.67;13.31;101374.16;4971043;28;20072;-80
2022/07/20 06:49:41;;;;;;;4.75;1.50;;;;;;;38.82;12.07;101369.38;4962766;28;20043;-80
2022/07/20 06:52:07;;;;;;;2.22;1.35;;;;;;;37.41;12.84;101369.88;4961695;28;20057;-81
2022/07/20 06:54:33;;;;;;;7.97;1.40;;;;;;;38.29;12.85;101373.88;4976076;28;20038;-76
2022/07/20 06:56:59;;;;;;;1.98;1.35;;;;;;;37.81;12.97;101373.97;4973293;28;20046;-79
2022/07/20 06:59:25;;;;;;;2.45;1.30;;;;;;;38.09;12.59;101374.19;4979008;28;20031;-81
2022/07/20 07:01:50;;;;;;;3.75;1.77;;;;;;;37.89;12.69;101376.38;4973717;28;20473;-77
2022/07/20 07:04:16;;;;;;;3.97;1.38;;;;;;;39.36;11.88;101375.44;4971262;28;20050;-80
2022/07/20 07:06:42;;;;;;;4.03;1.00;;;;;;;40.48;11.45;101375.75;4968776;28;20038;-81
2022/07/20 07:09:09;;;;;;;5.82;1.67;;;;;;;40.84;10.56;101384.50;4959026;28;20034;-78
2022/07/20 07:11:35;;;;;;;2.67;1.73;;;;;;;40.86;11.17;101382.34;4957506;28;20031;-80
2022/07/20 07:14:00;;;;;;;2.67;1.20;;;;;;;40.99;10.83;101395.69;4987835;28;20169;-82
2022/07/20 07:16:26;;;;;;;4.97;1.38;;;;;;;41.09;10.35;101386.75;4972016;28;20675;-78
2022/07/20 07:18:51;;;;;;;3.58;1.10;;;;;;;40.09;11.16;101383.91;4970461;28;20205;-76
2022/07/20 07:21:17;;;;;;;2.50;1.13;;;;;;;40.28;12.42;101389.16;4974709;28;20041;-80
2022/07/20 07:23:45;;;;;;;3.15;1.48;;;;;;;40.30;11.14;101381.53;4971464;28;20050;-79
2022/07/20 07:26:11;;;;;;;6.70;1.60;;;;;;;40.52;11.41;101379.69;4976344;28;20092;-82
2022/07/20 07:28:37;;;;;;;2.70;1.63;;;;;;;40.40;11.43;101385.25;4979910;28;20042;-83
2022/07/20 07:31:02;;;;;;;3.17;1.35;;;;;;;41.57;10.98;101387.88;4966339;28;20093;-81
2022/07/20 07:33:28;;;;;;;8.77;1.65;;;;;;;41.53;10.87;101385.91;4965250;28;20072;-81
2022/07/20 07:35:55;;;;;;;3.53;1.40;;;;;;;42.09;10.85;101382.91;4977648;28;20917;-79
2022/07/20 07:38:21;;;;;;;2.13;1.05;;;;;;;42.95;9.98;101385.38;4982878;28;20057;-76
2022/07/20 07:40:47;;;;;;;6.15;1.38;;;;;;;42.58;9.55;101386.28;4989820;28;20529;-79
2022/07/20 07:43:14;;;;;;;2.40;1.10;;;;;;;42.56;9.77;101388.44;4960545;28;20111;-80
2022/07/20 07:45:39;;;;;;;4.47;1.33;;;;;;;41.42;10.67;101383.06;4980345;28;20214;-83
2022/07/20 07:48:09;;;;;;;1.63;1.33;;;;;;;41.17;10.98;101388.25;4957155;28;20046;-80
2022/07/20 07:50:40;;;;;;;6.38;1.73;;;;;;;41.51;10.43;101386.16;4974543;28;20112;-81
2022/07/20 07:53:07;;;;;;;;;;;;;;;42.07;10.83;101391.38;4975005;28;20042;-84
2022/07/20 07:55:37;;;;;;;2.40;1.23;;;;;;;42.64;9.57;101390.72;4976251;28;19925;-79
2022/07/20 07:58:03;;;;;;;3.58;1.50;;;;;;;43.37;9.88;101387.16;4971578;28;20560;-78
2022/07/20 08:00:29;;;;;;;4.10;2.10;;;;;;;42.61;9.17;101391.22;4989029;28;20041;-77
2022/07/20 08:02:54;;;;;;;4.15;1.33;;;;;;;41.82;9.61;101392.81;4981577;28;20511;-81
2022/07/20 08:05:21;;;;;;;4.78;1.60;;;;;;;41.77;10.35;101387.28;4980628;28;20034;-83
2022/07/20 08:07:47;;;;;;;2.53;1.05;;;;;;;41.46;10.12;101390.78;4970663;28;20038;-80
2022/07/20 08:10:12;;;;;;;3.25;1.48;;;;;;;41.10;10.16;101390.34;4964416;28;20057;-81
2022/07/20 08:12:38;;;;;;;1.55;1.35;;;;;;;41.90;10.53;101394.25;4976050;28;20121;-77
2022/07/20 08:15:05;;;;;;;2.22;1.55;;;;;;;40.98;10.58;101388.53;4979147;28;20811;-82
2022/07/20 08:17:31;;;;;;;3.55;1.67;;;;;;;41.69;10.54;101389.66;4975430;28;20042;-81
2022/07/20 08:19:57;;;;;;;1.58;1.23;;;;;;;42.63;9.75;101378.03;4974837;28;20129;-81
2022/07/20 08:22:22;;;;;;;3.65;1.75;;;;;;;40.90;10.45;101375.31;4978853;28;20078;-79
2022/07/20 08:24:47;;;;;;;4.25;1.67;;;;;;;40.72;10.63;101381.06;4973849;28;20038;-78
2022/07/20 08:27:13;;;;;;;6.03;1.60;;;;;;;40.81;10.53;101374.06;4969404;28;20298;-80
2022/07/20 08:29:38;;;;;;;11.18;2.05;;;;;;;40.59;10.59;101374.84;4965538;28;20140;-81
2022/07/20 08:32:04;;;;;;;6.72;1.40;;;;;;;41.28;10.92;101383.75;4978602;28;21206;-79
2022/07/20 08:34:30;;;;;;;6.25;1.85;;;;;;;42.67;9.62;101378.38;4961999;28;20062;-78
2022/07/20 08:36:55;;;;;;;3.45;1.40;;;;;;;43.02;9.66;101380.47;4966036;28;20095;-79
2022/07/20 08:39:22;;;;;;;3.42;1.70;;;;;;;43.90;9.06;101376.00;4958186;28;20046;-82
2022/07/20 08:41:48;;;;;;;4.78;1.52;;;;;;;43.77;8.55;101371.88;4965150;28;20038;-80
2022/07/20 08:44:14;;;;;;;3.38;2.00;;;;;;;43.20;9.95;101368.16;4964114;28;20042;-82
2022/07/20 08:46:43;;;;;;;5.40;1.50;;;;;;;42.75;8.86;101375.13;4974151;28;20062;-80
2022/07/20 08:49:08;;;;;;;3.72;1.95;;;;;;;42.67;9.26;101366.53;4964395;28;20394;-80
2022/07/20 08:51:34;;;;;;;9.15;2.13;;;;;;;42.73;9.23;101362.72;4990110;28;20649;-81
2022/07/20 08:54:00;;;;;;;4.55;1.77;;;;;;;43.12;9.16;101368.69;4978991;28;20045;-78
2022/07/20 08:56:26;;;;;;;4.10;1.90;;;;;;;43.40;8.86;101364.66;4982144;28;20528;-83
2022/07/20 08:58:52;;;;;;;2.33;1.55;;;;;;;43.31;9.32;101365.41;4976978;28;20070;-81
2022/07/20 09:01:19;;;;;;;2.72;1.80;;;;;;;42.29;9.96;101365.75;4974370;28;20330;-81
2022/07/20 09:04:06;;;;;;;5.38;2.97;;;;;;;42.05;9.93;101366.13;4962084;28;20521;-77
2022/07/20 09:06:32;;;;;;;1.83;1.23;;;;;;;42.40;9.40;101356.50;4990146;28;20432;-83
2022/07/20 09:09:06;;;;;;;5.53;1.83;;;;;;;42.40;9.26;101357.31;4977018;28;20046;-76
2022/07/20 09:11:33;;;;;;;2.55;1.90;;;;;;;41.80;9.77;101361.22;4975267;28;20062;-83
2022/07/20 09:13:59;;;;;;;6.28;1.75;;;;;;;41.46;9.71;101349.66;4973401;28;20050;-77
2022/07/20 09:16:31;;;;;;;2.00;1.75;;;;;;;41.66;10.17;101355.34;4964500;28;20031;-82
2022/07/20 09:18:57;;;;;;;2.83;1.63;;;;;;;42.54;9.19;101363.16;4972671;28;20050;-82
2022/07/20 09:21:30;;;;;;;2.85;1.90;;;;;;;42.84;9.59;101356.22;4973084;28;20045;-81
2022/07/20 09:23:56;;;;;;;6.93;1.92;;;;;;;43.18;9.56;101350.28;4979097;28;20432;-79
2022/07/20 09:26:24;;;;;;;9.07;2.30;;;;;;;43.16;9.60;101363.50;4960853;28;20485;-80
2022/07/20 09:28:52;;;;;;;3.83;1.67;;;;;;;43.56;10.10;101379.25;4975090;28;20465;-79
2022/07/20 09:31:22;;;;;;;7.97;1.98;;;;;;;41.98;10.48;101382.00;4979276;28;20555;-81
2022/07/20 09:33:50;;;;;;;7.28;1.88;;;;;;;40.19;11.91;101388.75;4952906;28;20440;-77
2022/07/20 09:36:18;;;;;;;4.65;1.98;;;;;;;40.17;11.55;101397.19;4979366;28;20077;-78
2022/07/20 09:38:44;;;;;;;3.95;2.13;;;;;;;38.53;13.21;101403.94;4973532;28;20124;-80
2022/07/20 09:41:26;;;;;;;9.60;1.67;;;;;;;39.26;13.63;101402.56;4957149;28;20209;-79
2022/07/20 09:43:54;;;;;;;8.88;4.07;;;;;;;38.09;12.82;101403.38;4984502;28;20038;-80
2022/07/20 09:46:23;;;;;;;3.22;1.88;;;;;;;36.71;14.53;101414.66;4961688;28;20034;-80
2022/07/20 09:48:57;;;;;;;3.17;2.28;;;;;;;35.64;15.32;101419.94;4973002;28;20042;-81
2022/07/20 09:51:31;;;;;;;4.20;2.20;;;;;;;35.25;15.41;101426.34;4974219;28;20034;-78
2022/07/20 09:54:06;;;;;;;6.72;2.17;;;;;;;35.32;16.29;101427.16;4952889;28;21850;-79
2022/07/20 09:56:34;;;;;;;10.48;2.22;;;;;;;34.59;16.89;101433.50;4958529;28;20137;-80
2022/07/20 09:59:04;;;;;;;7.68;2.25;;;;;;;34.06;17.17;101438.81;4955849;28;20034;-78
2022/07/20 10:01:31;;;;;;;;;;;;;;;33.89;17.72;101446.50;4976834;28;20030;-80
2022/07/20 10:03:59;;;;;;;4.90;3.15;;;;;;;33.59;17.80;101446.78;4967150;28;21413;-79
2022/07/20 10:06:26;;;;;;;5.40;2.80;;;;;;;34.06;17.58;101449.66;4963055;28;20041;-80
2022/07/20 10:08:53;;;;;;;5.55;2.35;;;;;;;34.37;18.00;101457.25;4975140;28;20053;-80
2022/07/20 10:11:20;;;;;;;7.03;2.67;;;;;;;34.36;16.52;101450.16;4975363;28;20783;-76
2022/07/20 10:13:48;;;;;;;5.70;2.65;;;;;;;34.24;16.32;101449.09;4975552;28;20055;-77
2022/07/20 10:16:37;;;;;;;4.75;2.53;;;;;;;32.52;18.05;101457.81;4978486;28;20070;-79
2022/07/20 10:19:07;;;;;;;8.13;2.92;;;;;;;34.04;17.01;101458.00;4980379;28;20050;-79
2022/07/20 10:21:50;;;;;;;11.90;3.08;;;;;;;34.42;16.60;101465.63;4975519;28;20049;-79
2022/07/20 10:24:22;;;;;;;3.13;2.70;;;;;;;33.79;16.12;101470.41;4965657;28;20672;-79
2022/07/20 10:26:51;;;;;;;8.02;3.03;;;;;;;33.87;16.55;101473.78;4960221;28;20039;-79
2022/07/20 10:29:26;;;;;;;5.78;2.85;;;;;;;33.71;16.65;101481.47;4965270;28;20486;-77
2022/07/20 10:31:54;;;;;;;4.93;3.25;;;;;;;34.10;17.49;101488.06;4987250;28;20038;-79
2022/07/20 10:34:42;;;;;;;10.05;2.72;;;;;;;34.00;17.35;101483.84;4972569;28;20181;-79
2022/07/20 10:37:26;;;;;;;11.23;3.60;;;;;;;33.57;17.45;101492.19;4968761;28;20669;-78
2022/07/20 10:39:52;;;;;;;5.70;3.45;;;;;;;32.84;18.09;101500.63;4969541;28;20600;-79
2022/07/20 10:42:37;;;;;;;13.13;3.47;;;;;;;33.64;17.96;101503.91;4970383;28;20057;-79
2022/07/20 10:47:48;;;;;;;6.80;3.67;;;;;;;34.25;17.91;101507.75;4970643;28;20125;-78
2022/07/20 10:50:30;;;;;;;4.20;3.40;;;;;;;34.88;17.77;101516.41;4977883;28;20026;-79
2022/07/20 10:52:58;;;;;;;6.93;4.05;;;;;;;34.84;17.30;101517.88;4954482;28;20752;-78
2022/07/20 10:55:36;;;;;;;4.07;3.67;;;;;;;35.91;17.46;101512.28;4962277;28;20034;-78
2022/07/20 10:58:24;;;;;;;7.45;4.47;;;;;;;35.70;16.35;101505.25;4983631;28;20516;-76
2022/07/20 11:00:53;;;;;;;8.43;4.28;;;;;;;35.68;16.72;101519.03;4977141;28;20238;-79
2022/07/20 11:03:21;;;;;;;16.88;5.60;;;;;;;35.62;16.75;101519.88;4977882;28;20524;-78
2022/07/20 11:05:48;;;;;;;5.60;4.30;;;;;;;35.38;16.78;101517.81;4984991;28;20051;-79
2022/07/20 11:08:14;;;;;;;7.75;4.47;;;;;;;35.25;17.58;101527.69;4983777;28;20049;-77
2022/07/20 11:10:41;;;;;;;8.55;4.70;;;;;;;34.06;17.93;101522.88;4983131;28;20030;-80
2022/07/20 11:13:10;;;;;;;5.00;4.57;;;;;;;34.21;18.83;101529.00;4978729;28;20131;-79
2022/07/20 11:15:44;;;;;;;8.05;5.10;;;;;;;33.51;19.29;101535.53;4966236;28;20120;-78
2022/07/20 11:18:11;;;;;;;9.88;4.72;;;;;;;34.04;19.00;101543.97;4966622;28;21091;-77
2022/07/20 11:20:50;;;;;;;10.80;6.53;;;;;;;33.82;19.57;101526.97;4969123;28;20046;-76
2022/07/20 11:23:19;;;;;;;6.68;6.07;;;;;;;34.50;19.08;101545.97;4971497;28;20042;-78
2022/07/20 11:25:50;;;;;;;9.13;5.93;;;;;;;34.85;19.05;101546.69;4977177;28;20050;-78
2022/07/20 11:28:18;;;;;;;6.55;5.95;;;;;;;34.60;19.42;101542.91;4975928;28;20110;-77
2022/07/20 11:30:45;;;;;;;8.13;7.32;;;;;;;35.13;18.62;101528.53;4966097;28;20121;-77